createdAt,value
2019-02-09T00:00:31.113Z,1003.03
2019-02-09T00:01:28.597Z,1003.07
2019-02-09T00:02:29.555Z,1003.01
2019-02-09T00:03:28.920Z,1002.99
2019-02-09T00:04:28.727Z,1002.95
2019-02-09T00:05:28.567Z,1002.92
2019-02-09T00:06:28.726Z,1002.82
2019-02-09T00:07:28.562Z,1002.89
2019-02-09T00:08:29.012Z,1002.81
2019-02-09T00:09:28.571Z,1002.80
2019-02-09T00:10:28.732Z,1002.76
2019-02-09T00:11:28.568Z,1002.75
2019-02-09T00:12:29.825Z,1002.70
2019-02-09T00:13:29.951Z,1002.72
2019-02-09T00:14:28.651Z,1002.63
2019-02-09T00:15:29.884Z,1002.66
2019-02-09T00:16:28.538Z,1002.63
2019-02-09T00:17:28.758Z,1002.65
2019-02-09T00:18:28.555Z,1002.62
2019-02-09T00:19:29.482Z,1002.58
2019-02-09T00:20:28.561Z,1002.55
2019-02-09T00:21:30.503Z,1002.55
2019-02-09T00:22:28.563Z,1002.51
2019-02-09T00:23:28.739Z,1002.51
2019-02-09T00:24:28.894Z,1002.45
2019-02-09T00:25:28.674Z,1002.42
2019-02-09T00:26:28.542Z,1002.44
2019-02-09T00:27:29.486Z,1002.46
2019-02-09T00:28:28.540Z,1002.48
2019-02-09T00:29:28.704Z,1002.41
2019-02-09T00:30:28.555Z,1002.40
2019-02-09T00:31:29.045Z,1002.33
2019-02-09T00:32:28.605Z,1002.39
2019-02-09T00:33:28.771Z,1002.30
2019-02-09T00:34:28.658Z,1002.24
2019-02-09T00:35:28.780Z,1002.38
2019-02-09T00:36:28.707Z,1002.26
2019-02-09T00:37:29.488Z,1002.23
2019-02-09T00:38:28.747Z,1002.25
2019-02-09T00:39:28.559Z,1002.31
2019-02-09T00:40:28.723Z,1002.28
2019-02-09T00:41:28.536Z,1002.29
2019-02-09T00:42:28.802Z,1002.26
2019-02-09T00:43:29.370Z,1002.30
2019-02-09T00:44:28.707Z,1002.25
2019-02-09T00:45:28.563Z,1002.24
2019-02-09T00:46:28.699Z,1002.27
2019-02-09T00:47:28.602Z,1002.28
2019-02-09T00:48:29.172Z,1002.24
2019-02-09T00:49:29.396Z,1002.28
2019-02-09T00:50:30.459Z,1002.32
2019-02-09T00:51:28.561Z,1002.27
2019-02-09T00:52:28.777Z,1002.19
2019-02-09T00:53:28.582Z,1002.16
2019-02-09T00:54:29.298Z,1002.23
2019-02-09T00:55:28.661Z,1002.16
2019-02-09T00:56:28.781Z,1002.13
2019-02-09T00:57:28.707Z,1002.14
2019-02-09T00:58:28.607Z,1002.16
2019-02-09T00:59:28.761Z,1002.06
2019-02-09T01:00:29.328Z,1002.07
2019-02-09T01:01:29.408Z,1002.01
2019-02-09T01:02:28.541Z,1002.09
2019-02-09T01:03:28.778Z,1002.02
2019-02-09T01:04:28.565Z,1002.10
2019-02-09T01:05:28.610Z,1002.05
2019-02-09T01:06:29.358Z,1002.08
2019-02-09T01:07:29.616Z,1002.15
2019-02-09T01:08:28.529Z,1002.02
2019-02-09T01:09:29.027Z,1001.95
2019-02-09T01:10:28.535Z,1001.96
2019-02-09T01:11:29.634Z,1002.01
2019-02-09T01:12:28.516Z,1001.92
2019-02-09T01:13:29.320Z,1001.92
2019-02-09T01:14:28.506Z,1001.91
2019-02-09T01:15:28.512Z,1001.99
2019-02-09T01:16:28.600Z,1002.00
2019-02-09T01:17:28.129Z,1001.85
2019-02-09T01:18:28.130Z,1001.89
2019-02-09T01:19:29.531Z,1001.92
2019-02-09T01:20:27.739Z,1001.95
2019-02-09T01:21:27.740Z,1001.95
2019-02-09T01:22:27.716Z,1001.99
2019-02-09T01:23:27.697Z,1002.02
2019-02-09T01:24:29.108Z,1001.81
2019-02-09T01:25:27.683Z,1001.82
2019-02-09T01:26:27.687Z,1001.75
2019-02-09T01:27:27.656Z,1001.89
2019-02-09T01:28:27.652Z,1001.76
2019-02-09T01:29:27.653Z,1001.71
2019-02-09T01:30:30.048Z,1001.71
2019-02-09T01:31:27.638Z,1001.53
2019-02-09T01:32:27.634Z,1001.62
2019-02-09T01:33:27.699Z,1001.62
2019-02-09T01:34:27.590Z,1001.62
2019-02-09T01:35:27.670Z,1001.42
2019-02-09T01:36:32.149Z,1001.50
2019-02-09T01:37:27.555Z,1001.38
2019-02-09T01:38:27.571Z,1001.32
2019-02-09T01:39:27.537Z,1001.34
2019-02-09T01:40:27.522Z,1001.39
2019-02-09T01:41:27.500Z,1001.25
2019-02-09T01:42:27.667Z,1001.17
2019-02-09T01:43:27.542Z,1001.24
2019-02-09T01:44:27.480Z,1001.17
2019-02-09T01:45:27.468Z,1001.21
2019-02-09T01:46:27.563Z,1001.15
2019-02-09T01:47:27.618Z,1001.25
2019-02-09T01:48:27.507Z,1001.07
2019-02-09T01:49:27.422Z,1001.20
2019-02-09T01:50:27.572Z,1001.16
2019-02-09T01:51:27.426Z,1001.16
2019-02-09T01:52:27.933Z,1001.22
2019-02-09T01:53:27.370Z,1001.04
2019-02-09T01:54:27.362Z,1001.09
2019-02-09T01:55:27.360Z,1001.00
2019-02-09T01:56:27.382Z,1000.95
2019-02-09T01:57:27.333Z,1000.96
2019-02-09T01:58:27.499Z,1000.94
2019-02-09T01:59:27.493Z,1000.93
2019-02-09T02:00:27.295Z,1000.90
2019-02-09T02:01:29.526Z,1000.95
2019-02-09T02:02:27.303Z,1000.88
2019-02-09T02:03:27.560Z,1000.88
2019-02-09T02:04:27.252Z,1000.82
2019-02-09T02:05:27.615Z,1000.78
2019-02-09T02:06:27.232Z,1000.83
2019-02-09T02:07:27.511Z,1000.84
2019-02-09T02:08:27.322Z,1000.72
2019-02-09T02:09:27.477Z,1000.72
2019-02-09T02:10:27.860Z,1000.82
2019-02-09T02:11:27.413Z,1000.71
2019-02-09T02:12:27.233Z,1000.74
2019-02-09T02:13:27.310Z,1000.70
2019-02-09T02:14:27.292Z,1000.65
2019-02-09T02:15:27.287Z,1000.64
2019-02-09T02:16:27.560Z,1000.57
2019-02-09T02:17:27.288Z,1000.61
2019-02-09T02:18:27.209Z,1000.55
2019-02-09T02:19:27.819Z,1000.49
2019-02-09T02:20:27.165Z,1000.48
2019-02-09T02:21:27.545Z,1000.41
2019-02-09T02:22:27.827Z,1000.43
2019-02-09T02:23:27.041Z,1000.38
2019-02-09T02:24:27.042Z,1000.36
2019-02-09T02:25:27.054Z,1000.39
2019-02-09T02:26:27.057Z,1000.41
2019-02-09T02:27:27.418Z,1000.31
2019-02-09T02:28:27.713Z,1000.31
2019-02-09T02:29:26.980Z,1000.35
2019-02-09T02:30:26.987Z,1000.30
2019-02-09T02:31:26.969Z,1000.24
2019-02-09T02:32:26.985Z,1000.17
2019-02-09T02:33:27.531Z,1000.13
2019-02-09T02:34:27.062Z,1000.15
2019-02-09T02:35:26.916Z,1000.18
2019-02-09T02:36:26.920Z,1000.12
2019-02-09T02:37:26.932Z,1000.07
2019-02-09T02:38:27.203Z,1000.13
2019-02-09T02:39:27.536Z,1000.16
2019-02-09T02:40:27.011Z,1000.11
2019-02-09T02:41:26.863Z,1000.19
2019-02-09T02:42:26.851Z,1000.03
2019-02-09T02:43:26.840Z,1000.05
2019-02-09T02:44:26.970Z,1000.00
2019-02-09T02:45:26.815Z,1000.09
2019-02-09T02:46:26.997Z,1000.05
2019-02-09T02:47:26.804Z,999.98
2019-02-09T02:48:26.790Z,1000.03
2019-02-09T02:49:26.764Z,1000.02
2019-02-09T02:50:26.785Z,999.97
2019-02-09T02:51:26.883Z,999.97
2019-02-09T02:52:26.734Z,999.99
2019-02-09T02:53:26.721Z,999.94
2019-02-09T02:54:26.751Z,999.94
2019-02-09T02:55:26.705Z,999.89
2019-02-09T02:56:26.836Z,999.78
2019-02-09T02:57:27.051Z,999.74
2019-02-09T02:58:26.693Z,999.65
2019-02-09T02:59:26.671Z,999.62
2019-02-09T03:00:32.362Z,999.68
2019-02-09T03:01:27.761Z,999.68
2019-02-09T03:02:26.625Z,999.76
2019-02-09T03:03:26.959Z,999.62
2019-02-09T03:04:26.592Z,999.60
2019-02-09T03:05:26.597Z,999.55
2019-02-09T03:06:26.585Z,999.61
2019-02-09T03:07:26.904Z,999.65
2019-02-09T03:08:26.545Z,999.56
2019-02-09T03:09:26.543Z,999.55
2019-02-09T03:10:26.536Z,999.54
2019-02-09T03:11:26.685Z,999.54
2019-02-09T03:12:27.669Z,999.56
2019-02-09T03:13:27.476Z,999.56
2019-02-09T03:14:26.486Z,999.54
2019-02-09T03:15:26.544Z,999.53
2019-02-09T03:16:26.464Z,999.52
2019-02-09T03:17:26.469Z,999.44
2019-02-09T03:18:26.453Z,999.45
2019-02-09T03:19:26.695Z,999.41
2019-02-09T03:20:26.434Z,999.36
2019-02-09T03:21:26.415Z,999.30
2019-02-09T03:22:26.589Z,999.31
2019-02-09T03:23:26.403Z,999.28
2019-02-09T03:24:26.387Z,999.26
2019-02-09T03:25:26.396Z,999.27
2019-02-09T03:26:26.373Z,999.14
2019-02-09T03:27:26.350Z,999.12
2019-02-09T03:28:26.601Z,999.11
2019-02-09T03:29:26.323Z,999.05
2019-02-09T03:30:26.376Z,999.08
2019-02-09T03:31:26.319Z,999.13
2019-02-09T03:32:26.357Z,999.12
2019-02-09T03:33:26.286Z,999.16
2019-02-09T03:34:26.681Z,999.08
2019-02-09T03:35:26.252Z,999.05
2019-02-09T03:36:26.262Z,999.00
2019-02-09T03:37:26.245Z,999.12
2019-02-09T03:38:26.426Z,999.08
2019-02-09T03:39:26.209Z,998.94
2019-02-09T03:40:26.213Z,998.93
2019-02-09T03:41:26.194Z,998.94
2019-02-09T03:42:26.174Z,998.85
2019-02-09T03:43:26.552Z,998.94
2019-02-09T03:44:26.990Z,998.84
2019-02-09T03:45:26.255Z,998.79
2019-02-09T03:46:26.145Z,998.88
2019-02-09T03:47:26.142Z,998.84
2019-02-09T03:48:26.125Z,998.78
2019-02-09T03:49:26.686Z,998.85
2019-02-09T03:50:26.103Z,998.81
2019-02-09T03:51:26.086Z,998.78
2019-02-09T03:52:26.071Z,998.66
2019-02-09T03:53:26.089Z,998.75
2019-02-09T03:54:26.049Z,998.69
2019-02-09T03:55:26.261Z,998.69
2019-02-09T03:56:26.217Z,998.70
2019-02-09T03:57:26.448Z,998.69
2019-02-09T03:58:26.004Z,998.83
2019-02-09T03:59:26.016Z,998.65
2019-02-09T04:00:26.063Z,998.66
2019-02-09T04:01:26.179Z,998.56
2019-02-09T04:02:27.873Z,998.61
2019-02-09T04:03:26.133Z,998.57
2019-02-09T04:04:25.973Z,998.54
2019-02-09T04:05:25.947Z,998.63
2019-02-09T04:06:25.924Z,998.55
2019-02-09T04:07:25.908Z,998.53
2019-02-09T04:08:25.907Z,998.48
2019-02-09T04:09:26.105Z,998.52
2019-02-09T04:10:25.899Z,998.49
2019-02-09T04:11:26.093Z,998.47
2019-02-09T04:12:25.871Z,998.39
2019-02-09T04:13:25.849Z,998.43
2019-02-09T04:14:25.837Z,998.44
2019-02-09T04:15:26.012Z,998.50
2019-02-09T04:16:25.813Z,998.51
2019-02-09T04:17:25.855Z,998.51
2019-02-09T04:18:25.807Z,998.61
2019-02-09T04:19:25.939Z,998.55
2019-02-09T04:20:25.784Z,998.46
2019-02-09T04:21:26.176Z,998.38
2019-02-09T04:22:25.762Z,998.40
2019-02-09T04:23:26.288Z,998.49
2019-02-09T04:24:25.745Z,998.36
2019-02-09T04:25:25.725Z,998.31
2019-02-09T04:26:25.706Z,998.30
2019-02-09T04:27:26.233Z,998.35
2019-02-09T04:28:25.683Z,998.31
2019-02-09T04:29:25.670Z,998.35
2019-02-09T04:30:25.661Z,998.36
2019-02-09T04:31:25.651Z,998.35
2019-02-09T04:32:25.643Z,998.33
2019-02-09T04:33:25.904Z,998.34
2019-02-09T04:34:26.035Z,998.33
2019-02-09T04:35:25.639Z,998.28
2019-02-09T04:36:25.651Z,998.13
2019-02-09T04:37:25.595Z,998.25
2019-02-09T04:38:26.021Z,998.33
2019-02-09T04:39:25.577Z,998.33
2019-02-09T04:40:25.556Z,998.34
2019-02-09T04:41:25.541Z,998.28
2019-02-09T04:42:25.530Z,998.13
2019-02-09T04:43:25.522Z,998.17
2019-02-09T04:44:25.700Z,998.23
2019-02-09T04:45:25.676Z,998.25
2019-02-09T04:46:25.487Z,998.25
2019-02-09T04:47:25.503Z,998.23
2019-02-09T04:48:25.602Z,998.16
2019-02-09T04:49:25.495Z,998.18
2019-02-09T04:50:25.438Z,998.15
2019-02-09T04:51:25.692Z,998.06
2019-02-09T04:52:25.430Z,998.06
2019-02-09T04:53:25.483Z,998.00
2019-02-09T04:54:25.405Z,998.03
2019-02-09T04:55:25.401Z,998.08
2019-02-09T04:56:25.385Z,998.03
2019-02-09T04:57:25.758Z,998.04
2019-02-09T04:58:25.533Z,998.00
2019-02-09T04:59:25.352Z,997.94
2019-02-09T05:00:25.331Z,998.02
2019-02-09T05:01:25.322Z,997.85
2019-02-09T05:02:25.325Z,997.81
2019-02-09T05:03:25.304Z,997.87
2019-02-09T05:04:25.712Z,997.87
2019-02-09T05:05:25.303Z,997.88
2019-02-09T05:06:25.381Z,997.88
2019-02-09T05:07:25.268Z,997.88
2019-02-09T05:08:25.495Z,997.92
2019-02-09T05:09:25.502Z,997.82
2019-02-09T05:10:25.552Z,997.86
2019-02-09T05:11:25.287Z,997.79
2019-02-09T05:12:25.422Z,997.77
2019-02-09T05:13:26.526Z,997.83
2019-02-09T05:14:25.961Z,997.78
2019-02-09T05:15:25.233Z,997.83
2019-02-09T05:16:25.167Z,997.90
2019-02-09T05:17:25.243Z,997.77
2019-02-09T05:18:25.264Z,997.83
2019-02-09T05:19:25.240Z,997.73
2019-02-09T05:20:25.685Z,997.75
2019-02-09T05:21:25.223Z,997.73
2019-02-09T05:22:25.588Z,997.81
2019-02-09T05:23:25.333Z,997.82
2019-02-09T05:24:25.073Z,997.84
2019-02-09T05:25:25.391Z,997.85
2019-02-09T05:26:25.061Z,997.87
2019-02-09T05:27:25.435Z,997.81
2019-02-09T05:28:25.489Z,997.74
2019-02-09T05:29:25.019Z,997.79
2019-02-09T05:30:25.012Z,997.87
2019-02-09T05:31:25.749Z,997.83
2019-02-09T05:32:24.995Z,997.89
2019-02-09T05:33:24.971Z,997.96
2019-02-09T05:34:25.422Z,997.87
2019-02-09T05:35:24.955Z,997.77
2019-02-09T05:36:24.932Z,997.90
2019-02-09T05:37:24.926Z,997.91
2019-02-09T05:38:24.914Z,997.84
2019-02-09T05:39:24.902Z,997.77
2019-02-09T05:40:25.252Z,997.78
2019-02-09T05:41:24.890Z,997.89
2019-02-09T05:42:25.024Z,997.75
2019-02-09T05:43:24.899Z,997.78
2019-02-09T05:44:24.906Z,997.80
2019-02-09T05:45:25.013Z,997.82
2019-02-09T05:46:24.828Z,997.81
2019-02-09T05:47:24.854Z,997.76
2019-02-09T05:48:25.023Z,997.79
2019-02-09T05:49:24.800Z,997.73
2019-02-09T05:50:24.788Z,997.79
2019-02-09T05:51:24.778Z,997.80
2019-02-09T05:52:24.761Z,997.77
2019-02-09T05:53:24.752Z,997.91
2019-02-09T05:54:24.961Z,997.90
2019-02-09T05:55:24.741Z,997.88
2019-02-09T05:56:24.719Z,997.87
2019-02-09T05:57:24.824Z,997.80
2019-02-09T05:58:24.707Z,997.85
2019-02-09T05:59:24.867Z,997.89
2019-02-09T06:00:25.004Z,997.85
2019-02-09T06:01:31.881Z,997.81
2019-02-09T06:02:25.753Z,997.84
2019-02-09T06:03:26.559Z,997.97
2019-02-09T06:04:24.689Z,997.84
2019-02-09T06:05:24.631Z,997.88
2019-02-09T06:06:24.960Z,997.82
2019-02-09T06:07:24.617Z,997.78
2019-02-09T06:08:25.065Z,997.73
2019-02-09T06:09:24.619Z,997.77
2019-02-09T06:10:24.613Z,997.76
2019-02-09T06:11:24.912Z,997.82
2019-02-09T06:12:24.535Z,997.84
2019-02-09T06:13:24.540Z,997.82
2019-02-09T06:14:24.644Z,997.81
2019-02-09T06:15:24.611Z,997.78
2019-02-09T06:16:24.503Z,997.77
2019-02-09T06:17:24.710Z,997.82
2019-02-09T06:18:24.477Z,997.89
2019-02-09T06:19:24.474Z,997.80
2019-02-09T06:20:24.475Z,997.89
2019-02-09T06:21:24.445Z,997.85
2019-02-09T06:22:24.443Z,997.95
2019-02-09T06:23:25.266Z,997.91
2019-02-09T06:24:25.345Z,997.83
2019-02-09T06:25:24.469Z,997.88
2019-02-09T06:26:24.423Z,997.91
2019-02-09T06:27:24.377Z,997.90
2019-02-09T06:28:24.385Z,998.00
2019-02-09T06:29:24.642Z,997.90
2019-02-09T06:30:24.384Z,997.94
2019-02-09T06:31:24.493Z,997.90
2019-02-09T06:32:24.324Z,997.96
2019-02-09T06:33:24.340Z,997.99
2019-02-09T06:34:24.314Z,997.92
2019-02-09T06:35:24.744Z,997.98
2019-02-09T06:36:24.283Z,997.87
2019-02-09T06:37:24.271Z,997.90
2019-02-09T06:38:24.257Z,997.89
2019-02-09T06:39:24.247Z,997.85
2019-02-09T06:40:24.254Z,997.84
2019-02-09T06:41:24.596Z,997.82
2019-02-09T06:42:24.229Z,997.92
2019-02-09T06:43:24.226Z,997.86
2019-02-09T06:44:24.192Z,997.82
2019-02-09T06:45:24.211Z,997.92
2019-02-09T06:46:24.222Z,997.92
2019-02-09T06:47:24.489Z,998.00
2019-02-09T06:48:24.626Z,997.98
2019-02-09T06:49:24.144Z,997.94
2019-02-09T06:50:24.168Z,997.91
2019-02-09T06:51:24.134Z,997.97
2019-02-09T06:52:26.054Z,997.94
2019-02-09T06:53:24.404Z,997.95
2019-02-09T06:54:24.088Z,997.98
2019-02-09T06:55:24.068Z,998.05
2019-02-09T06:56:24.073Z,998.03
2019-02-09T06:57:24.052Z,998.10
2019-02-09T06:58:24.050Z,998.08
2019-02-09T06:59:24.212Z,998.16
2019-02-09T07:00:24.201Z,998.03
2019-02-09T07:01:24.019Z,998.06
2019-02-09T07:02:23.996Z,998.08
2019-02-09T07:03:24.072Z,998.10
2019-02-09T07:04:23.970Z,998.07
2019-02-09T07:05:24.127Z,998.05
2019-02-09T07:06:24.152Z,998.13
2019-02-09T07:07:24.021Z,998.12
2019-02-09T07:08:23.933Z,998.07
2019-02-09T07:09:23.976Z,998.04
2019-02-09T07:10:23.914Z,998.06
2019-02-09T07:11:24.125Z,998.13
2019-02-09T07:12:23.891Z,998.15
2019-02-09T07:13:23.885Z,998.08
2019-02-09T07:14:25.078Z,998.06
2019-02-09T07:15:23.866Z,998.12
2019-02-09T07:16:24.049Z,998.11
2019-02-09T07:17:23.837Z,998.11
2019-02-09T07:18:23.821Z,998.09
2019-02-09T07:19:24.133Z,998.10
2019-02-09T07:20:23.988Z,998.08
2019-02-09T07:21:23.782Z,998.10
2019-02-09T07:22:23.847Z,998.14
2019-02-09T07:23:23.790Z,998.15
2019-02-09T07:24:23.805Z,998.15
2019-02-09T07:25:23.920Z,998.17
2019-02-09T07:26:23.768Z,998.27
2019-02-09T07:27:23.728Z,998.27
2019-02-09T07:28:23.728Z,998.23
2019-02-09T07:29:23.708Z,998.22
2019-02-09T07:30:23.998Z,998.27
2019-02-09T07:31:23.701Z,998.32
2019-02-09T07:32:23.763Z,998.29
2019-02-09T07:33:23.662Z,998.34
2019-02-09T07:34:23.656Z,998.28
2019-02-09T07:35:23.636Z,998.27
2019-02-09T07:36:23.955Z,998.29
2019-02-09T07:37:23.750Z,998.20
2019-02-09T07:38:23.616Z,998.30
2019-02-09T07:39:23.591Z,998.17
2019-02-09T07:40:23.591Z,998.18
2019-02-09T07:41:23.580Z,998.18
2019-02-09T07:42:23.736Z,998.23
2019-02-09T07:43:23.570Z,998.21
2019-02-09T07:44:23.531Z,998.24
2019-02-09T07:45:23.532Z,998.15
2019-02-09T07:46:23.528Z,998.16
2019-02-09T07:47:23.541Z,998.17
2019-02-09T07:48:24.137Z,998.22
2019-02-09T07:49:23.495Z,998.22
2019-02-09T07:50:24.493Z,998.23
2019-02-09T07:51:23.675Z,998.20
2019-02-09T07:52:23.513Z,998.18
2019-02-09T07:53:23.467Z,998.17
2019-02-09T07:54:23.592Z,998.26
2019-02-09T07:55:23.420Z,998.21
2019-02-09T07:56:23.461Z,998.20
2019-02-09T07:57:23.562Z,998.26
2019-02-09T07:58:23.397Z,998.27
2019-02-09T07:59:23.403Z,998.30
2019-02-09T08:00:24.070Z,998.23
2019-02-09T08:01:23.372Z,998.19
2019-02-09T08:02:23.354Z,998.31
2019-02-09T08:03:23.554Z,998.28
2019-02-09T08:04:25.442Z,998.23
2019-02-09T08:05:23.319Z,998.27
2019-02-09T08:06:23.566Z,998.28
2019-02-09T08:07:23.438Z,998.34
2019-02-09T08:08:23.282Z,998.27
2019-02-09T08:09:23.431Z,998.35
2019-02-09T08:10:24.242Z,998.37
2019-02-09T08:11:23.516Z,998.36
2019-02-09T08:12:23.591Z,998.32
2019-02-09T08:13:23.484Z,998.36
2019-02-09T08:14:23.244Z,998.41
2019-02-09T08:15:23.254Z,998.37
2019-02-09T08:16:23.225Z,998.42
2019-02-09T08:17:23.898Z,998.36
2019-02-09T08:18:23.231Z,998.39
2019-02-09T08:19:23.171Z,998.40
2019-02-09T08:20:23.151Z,998.44
2019-02-09T08:21:23.153Z,998.40
2019-02-09T08:22:23.323Z,998.37
2019-02-09T08:23:23.530Z,998.33
2019-02-09T08:24:23.133Z,998.39
2019-02-09T08:25:23.817Z,998.37
2019-02-09T08:26:23.468Z,998.29
2019-02-09T08:27:23.881Z,998.40
2019-02-09T08:28:23.380Z,998.36
2019-02-09T08:29:23.517Z,998.29
2019-02-09T08:30:23.826Z,998.35
2019-02-09T08:31:23.030Z,998.32
2019-02-09T08:32:23.056Z,998.41
2019-02-09T08:33:23.018Z,998.26
2019-02-09T08:34:23.005Z,998.36
2019-02-09T08:35:23.450Z,998.29
2019-02-09T08:36:22.974Z,998.29
2019-02-09T08:37:23.480Z,998.27
2019-02-09T08:38:22.954Z,998.32
2019-02-09T08:39:22.944Z,998.29
2019-02-09T08:40:22.933Z,998.23
2019-02-09T08:41:22.989Z,998.16
2019-02-09T08:42:22.908Z,998.12
2019-02-09T08:43:23.510Z,998.16
2019-02-09T08:44:22.889Z,998.09
2019-02-09T08:45:22.906Z,998.17
2019-02-09T08:46:22.884Z,998.12
2019-02-09T08:47:22.881Z,998.15
2019-02-09T08:48:22.846Z,998.15
2019-02-09T08:49:23.613Z,998.17
2019-02-09T08:50:23.282Z,998.22
2019-02-09T08:51:22.829Z,998.14
2019-02-09T08:52:23.459Z,998.21
2019-02-09T08:53:22.792Z,998.28
2019-02-09T08:54:22.972Z,998.22
2019-02-09T08:55:24.119Z,998.26
2019-02-09T08:56:22.772Z,998.36
2019-02-09T08:57:22.738Z,998.29
2019-02-09T08:58:22.772Z,998.38
2019-02-09T08:59:22.778Z,998.28
2019-02-09T09:00:22.875Z,998.33
2019-02-09T09:01:23.033Z,998.40
2019-02-09T09:02:22.703Z,998.34
2019-02-09T09:03:22.680Z,998.39
2019-02-09T09:04:22.723Z,998.42
2019-02-09T09:05:22.661Z,998.36
2019-02-09T09:06:23.238Z,998.39
2019-02-09T09:07:22.636Z,998.37
2019-02-09T09:08:22.627Z,998.28
2019-02-09T09:09:22.941Z,998.27
2019-02-09T09:10:22.607Z,998.32
2019-02-09T09:11:22.592Z,998.34
2019-02-09T09:12:22.578Z,998.54
2019-02-09T09:13:22.574Z,998.46
2019-02-09T09:14:22.592Z,998.52
2019-02-09T09:15:25.298Z,998.46
2019-02-09T09:16:22.657Z,998.25
2019-02-09T09:17:22.684Z,998.22
2019-02-09T09:18:22.522Z,998.28
2019-02-09T09:19:22.568Z,998.16
2019-02-09T09:20:22.493Z,998.16
2019-02-09T09:21:23.026Z,998.25
2019-02-09T09:22:22.469Z,998.22
2019-02-09T09:23:22.458Z,998.17
2019-02-09T09:24:22.486Z,998.22
2019-02-09T09:25:22.763Z,998.22
2019-02-09T09:26:22.422Z,998.32
2019-02-09T09:27:22.682Z,998.37
2019-02-09T09:28:22.449Z,998.34
2019-02-09T09:29:22.433Z,998.38
2019-02-09T09:30:22.387Z,998.34
2019-02-09T09:31:22.386Z,998.31
2019-02-09T09:32:28.545Z,998.29
2019-02-09T09:33:23.711Z,998.37
2019-02-09T09:34:22.480Z,998.37
2019-02-09T09:35:22.333Z,998.34
2019-02-09T09:36:22.644Z,998.42
2019-02-09T09:37:22.335Z,998.41
2019-02-09T09:38:22.334Z,998.45
2019-02-09T09:39:22.488Z,998.37
2019-02-09T09:40:22.270Z,998.49
2019-02-09T09:41:22.357Z,998.35
2019-02-09T09:42:22.323Z,998.41
2019-02-09T09:43:22.244Z,998.39
2019-02-09T09:44:22.558Z,998.35
2019-02-09T09:45:22.280Z,998.34
2019-02-09T09:46:22.229Z,998.42
2019-02-09T09:47:22.210Z,998.51
2019-02-09T09:48:22.178Z,998.42
2019-02-09T09:49:22.259Z,998.28
2019-02-09T09:50:22.438Z,998.39
2019-02-09T09:51:22.638Z,998.41
2019-02-09T09:52:22.146Z,998.38
2019-02-09T09:53:22.130Z,998.47
2019-02-09T09:54:22.118Z,998.49
2019-02-09T09:55:22.108Z,998.46
2019-02-09T09:56:22.108Z,998.68
2019-02-09T09:57:22.609Z,998.67
2019-02-09T09:58:22.092Z,998.51
2019-02-09T09:59:22.050Z,998.41
2019-02-09T10:00:22.063Z,998.63
2019-02-09T10:01:22.036Z,998.57
2019-02-09T10:02:22.192Z,998.77
2019-02-09T10:03:22.029Z,998.73
2019-02-09T10:04:22.050Z,998.93
2019-02-09T10:05:23.911Z,998.79
2019-02-09T10:06:22.102Z,998.45
2019-02-09T10:07:21.960Z,998.58
2019-02-09T10:08:22.469Z,998.73
2019-02-09T10:09:21.964Z,998.69
2019-02-09T10:10:21.948Z,998.81
2019-02-09T10:11:21.929Z,998.64
2019-02-09T10:12:21.934Z,998.65
2019-02-09T10:13:21.910Z,998.86
2019-02-09T10:14:22.046Z,998.77
2019-02-09T10:15:21.888Z,998.69
2019-02-09T10:16:21.895Z,998.74
2019-02-09T10:17:21.856Z,998.60
2019-02-09T10:18:21.859Z,998.62
2019-02-09T10:19:21.846Z,998.65
2019-02-09T10:20:22.034Z,998.62
2019-02-09T10:21:22.045Z,998.79
2019-02-09T10:22:21.807Z,998.73
2019-02-09T10:23:21.973Z,998.78
2019-02-09T10:24:21.797Z,998.50
2019-02-09T10:25:21.813Z,998.70
2019-02-09T10:26:23.276Z,998.74
2019-02-09T10:27:21.766Z,998.69
2019-02-09T10:28:22.055Z,998.81
2019-02-09T10:29:21.765Z,998.72
2019-02-09T10:30:21.810Z,998.81
2019-02-09T10:31:21.717Z,998.73
2019-02-09T10:32:21.690Z,998.72
2019-02-09T10:33:21.690Z,998.85
2019-02-09T10:34:21.977Z,998.82
2019-02-09T10:35:21.666Z,998.55
2019-02-09T10:36:21.686Z,998.46
2019-02-09T10:37:21.652Z,998.80
2019-02-09T10:38:21.693Z,998.73
2019-02-09T10:39:21.933Z,998.82
2019-02-09T10:40:21.738Z,998.57
2019-02-09T10:41:21.590Z,998.53
2019-02-09T10:42:21.629Z,998.51
2019-02-09T10:43:21.593Z,998.82
2019-02-09T10:44:21.556Z,998.80
2019-02-09T10:45:21.776Z,998.75
2019-02-09T10:46:21.662Z,998.82
2019-02-09T10:47:21.530Z,998.65
2019-02-09T10:48:21.528Z,998.76
2019-02-09T10:49:21.556Z,998.40
2019-02-09T10:50:21.503Z,998.73
2019-02-09T10:51:21.699Z,998.74
2019-02-09T10:52:21.467Z,998.81
2019-02-09T10:53:21.569Z,998.76
2019-02-09T10:54:21.467Z,998.81
2019-02-09T10:55:21.568Z,998.85
2019-02-09T10:56:21.437Z,998.87
2019-02-09T10:57:21.984Z,998.61
2019-02-09T10:58:21.403Z,998.77
2019-02-09T10:59:21.425Z,998.46
2019-02-09T11:00:21.410Z,998.54
2019-02-09T11:01:21.378Z,998.47
2019-02-09T11:02:21.368Z,998.83
2019-02-09T11:03:21.531Z,998.50
2019-02-09T11:04:21.349Z,998.37
2019-02-09T11:05:21.343Z,998.67
2019-02-09T11:06:21.350Z,998.81
2019-02-09T11:07:21.312Z,998.49
2019-02-09T11:08:21.308Z,998.91
2019-02-09T11:09:22.182Z,998.93
2019-02-09T11:10:21.575Z,998.79
2019-02-09T11:11:21.285Z,998.87
2019-02-09T11:12:21.442Z,998.58
2019-02-09T11:13:21.297Z,998.44
2019-02-09T11:14:21.508Z,998.59
2019-02-09T11:15:21.748Z,998.96
2019-02-09T11:16:23.652Z,998.88
2019-02-09T11:17:21.829Z,998.53
2019-02-09T11:18:21.272Z,998.48
2019-02-09T11:19:21.460Z,998.87
2019-02-09T11:20:21.292Z,998.50
2019-02-09T11:21:21.637Z,998.82
2019-02-09T11:22:21.381Z,998.85
2019-02-09T11:23:21.262Z,998.45
2019-02-09T11:24:21.265Z,998.68
2019-02-09T11:25:21.635Z,998.71
2019-02-09T11:26:21.119Z,998.86
2019-02-09T11:27:21.463Z,998.35
2019-02-09T11:28:21.084Z,998.48
2019-02-09T11:29:21.388Z,998.84
2019-02-09T11:30:21.058Z,998.54
2019-02-09T11:31:21.777Z,998.51
2019-02-09T11:32:21.031Z,998.56
2019-02-09T11:33:21.026Z,998.73
2019-02-09T11:34:21.034Z,999.01
2019-02-09T11:35:21.780Z,998.70
2019-02-09T11:36:20.993Z,998.79
2019-02-09T11:37:21.037Z,998.65
2019-02-09T11:38:20.983Z,998.70
2019-02-09T11:39:20.955Z,998.79
2019-02-09T11:40:20.954Z,999.06
2019-02-09T11:41:21.271Z,998.70
2019-02-09T11:42:21.254Z,998.78
2019-02-09T11:43:20.925Z,998.78
2019-02-09T11:44:20.968Z,998.71
2019-02-09T11:45:20.910Z,998.80
2019-02-09T11:46:21.327Z,998.85
2019-02-09T11:47:20.874Z,998.99
2019-02-09T11:48:20.891Z,999.08
2019-02-09T11:49:20.843Z,998.68
2019-02-09T11:50:20.976Z,998.76
2019-02-09T11:51:20.832Z,998.77
2019-02-09T11:52:22.217Z,998.69
2019-02-09T11:53:20.953Z,998.75
2019-02-09T11:54:20.796Z,998.82
2019-02-09T11:55:20.920Z,998.77
2019-02-09T11:56:20.758Z,998.74
2019-02-09T11:57:20.755Z,998.81
2019-02-09T11:58:21.081Z,998.73
2019-02-09T11:59:21.404Z,998.96
2019-02-09T12:00:20.722Z,998.74
2019-02-09T12:01:20.777Z,998.78
2019-02-09T12:02:20.698Z,998.76
2019-02-09T12:03:20.702Z,998.83
2019-02-09T12:04:20.686Z,998.84
2019-02-09T12:05:21.340Z,998.75
2019-02-09T12:06:20.662Z,999.02
2019-02-09T12:07:20.655Z,998.56
2019-02-09T12:08:22.905Z,998.58
2019-02-09T12:09:20.626Z,998.68
2019-02-09T12:10:20.602Z,998.92
2019-02-09T12:11:20.826Z,998.73
2019-02-09T12:12:20.579Z,998.66
2019-02-09T12:13:20.573Z,998.72
2019-02-09T12:14:20.578Z,998.76
2019-02-09T12:15:20.574Z,998.68
2019-02-09T12:16:20.597Z,998.59
2019-02-09T12:17:21.077Z,998.66
2019-02-09T12:18:20.781Z,998.58
2019-02-09T12:19:20.516Z,998.65
2019-02-09T12:20:20.820Z,998.72
2019-02-09T12:21:20.618Z,998.75
2019-02-09T12:22:20.500Z,998.72
2019-02-09T12:23:20.798Z,998.78